Time;durP1;ratioP1;P1;durP2;ratioP2;P2;SDS_P1;SDS_P2;PMS_P1;PMS_P2;Temp;Humidity;BMP_temperature;BMP_pressure;BME280_temperature;BME280_humidity;BME280_pressure;Samples;Min_cycle;Max_cycle;Signal;HPM_P1;HPM_P2
2024/03/28 00:01:04;;;;;;;26.93;22.87;;;8.50;87.20;;;;;;5032027;28;20196;-86
2024/03/28 00:03:30;;;;;;;28.13;22.37;;;8.60;87.10;;;;;;5033367;28;20191;-86
2024/03/28 00:05:57;;;;;;;26.37;23.57;;;8.50;86.90;;;;;;5032124;28;20181;-87
2024/03/28 00:08:24;;;;;;;34.90;23.93;;;8.30;86.90;;;;;;5033328;28;20645;-86
2024/03/28 00:10:51;;;;;;;27.60;23.27;;;8.30;87.30;;;;;;5037519;28;20646;-86
2024/03/28 00:13:17;;;;;;;31.10;25.40;;;8.30;87.70;;;;;;5037083;28;20197;-86
2024/03/28 00:15:43;;;;;;;30.87;25.17;;;8.40;87.50;;;;;;5037226;28;20207;-86
2024/03/28 00:18:09;;;;;;;32.60;24.93;;;8.60;87.30;;;;;;5037226;28;20173;-86
2024/03/28 00:20:34;;;;;;;32.10;26.27;;;8.50;87.10;;;;;;5037021;28;20184;-86
2024/03/28 00:23:01;;;;;;;33.07;29.60;;;8.50;87.30;;;;;;5037037;28;20184;-86
2024/03/28 00:25:27;;;;;;;35.70;30.93;;;8.50;87.30;;;;;;5036664;28;20176;-86
2024/03/28 00:27:52;;;;;;;34.50;31.07;;;8.40;87.20;;;;;;5036935;28;20243;-86
2024/03/28 00:30:18;;;;;;;34.73;31.23;;;8.40;87.30;;;;;;5037092;28;20181;-86
2024/03/28 00:32:47;;;;;;;41.50;32.23;;;8.40;87.50;;;;;;5036591;28;20283;-86
2024/03/28 00:35:13;;;;;;;35.43;31.60;;;8.40;87.40;;;;;;5036784;28;20549;-86
2024/03/28 00:37:39;;;;;;;35.83;31.53;;;8.30;87.40;;;;;;5036749;28;20227;-86
2024/03/28 00:40:05;;;;;;;34.80;31.17;;;8.30;87.30;;;;;;5036522;28;20176;-86
2024/03/28 00:42:30;;;;;;;37.60;33.77;;;8.40;87.30;;;;;;5035244;28;20568;-86
2024/03/28 00:44:56;;;;;;;35.13;31.57;;;8.30;87.20;;;;;;5035405;28;20173;-86
2024/03/28 00:47:21;;;;;;;36.83;33.00;;;8.30;87.20;;;;;;5036658;28;20652;-87
2024/03/28 00:49:47;;;;;;;34.83;31.13;;;8.10;87.40;;;;;;5036569;28;20176;-86
2024/03/28 00:52:12;;;;;;;34.57;31.10;;;8.10;87.40;;;;;;5034915;28;20208;-89
2024/03/28 00:54:37;;;;;;;38.63;34.43;;;8.20;87.50;;;;;;5036343;28;20735;-86
2024/03/28 00:57:04;;;;;;;36.47;31.97;;;8.30;87.40;;;;;;5036542;28;20176;-87
2024/03/28 00:59:29;;;;;;;37.83;33.90;;;8.20;87.10;;;;;;5036104;28;20192;-86
2024/03/28 01:01:55;;;;;;;40.07;32.07;;;8.00;87.10;;;;;;5035137;28;20223;-86
2024/03/28 01:04:20;;;;;;;34.93;31.30;;;8.00;87.30;;;;;;5034829;28;20177;-86
2024/03/28 01:06:46;;;;;;;37.07;32.83;;;8.00;87.60;;;;;;5034847;28;20180;-86
2024/03/28 01:09:11;;;;;;;35.30;31.60;;;8.10;87.50;;;;;;5036249;28;20172;-86
2024/03/28 01:11:37;;;;;;;38.10;33.90;;;8.00;87.30;;;;;;5036496;28;20688;-86
2024/03/28 01:14:02;;;;;;;38.17;34.07;;;8.00;87.40;;;;;;5034924;28;20177;-86
2024/03/28 01:16:28;;;;;;;41.73;33.77;;;7.80;87.90;;;;;;5034796;28;20214;-86
2024/03/28 01:18:53;;;;;;;40.03;35.20;;;7.70;88.90;;;;;;5034828;28;20177;-86
2024/03/28 01:21:19;;;;;;;38.03;31.90;;;7.70;89.50;;;;;;5035193;28;20648;-86
2024/03/28 01:23:44;;;;;;;44.97;34.57;;;7.70;89.90;;;;;;5036062;28;20168;-86
2024/03/28 01:26:10;;;;;;;43.07;34.37;;;7.70;90.20;;;;;;5035758;28;20195;-86
2024/03/28 01:28:35;;;;;;;40.50;32.70;;;7.70;90.30;;;;;;5035789;28;20177;-86
2024/03/28 01:31:03;;;;;;;41.70;34.73;;;7.70;90.40;;;;;;5035982;28;20176;-85
2024/03/28 01:33:28;;;;;;;47.10;36.17;;;7.70;90.50;;;;;;5035487;28;20196;-86
2024/03/28 01:35:54;;;;;;;41.13;34.77;;;7.70;90.60;;;;;;5034267;28;20227;-86
2024/03/28 01:38:19;;;;;;;45.17;35.00;;;7.70;90.90;;;;;;5035393;28;20176;-86
2024/03/28 01:40:45;;;;;;;46.83;37.10;;;7.80;91.00;;;;;;5034292;28;20177;-86
2024/03/28 01:43:11;;;;;;;38.37;31.77;;;7.80;91.00;;;;;;5035308;28;20196;-85
2024/03/28 01:45:36;;;;;;;43.27;31.73;;;7.90;90.90;;;;;;5035459;28;20180;-87
2024/03/28 01:48:02;;;;;;;44.20;32.13;;;7.90;90.90;;;;;;5034081;28;20267;-86
2024/03/28 01:50:28;;;;;;;46.70;34.50;;;7.90;90.80;;;;;;5035205;28;20176;-86
2024/03/28 01:52:54;;;;;;;48.87;33.73;;;8.00;90.70;;;;;;5034120;28;20709;-86
2024/03/28 01:55:20;;;;;;;42.50;32.23;;;8.00;90.70;;;;;;5033929;28;20213;-89
2024/03/28 01:57:47;;;;;;;44.57;32.20;;;8.10;90.70;;;;;;5033722;28;20594;-87
2024/03/28 02:00:14;;;;;;;43.53;32.27;;;8.20;90.70;;;;;;5035125;28;20188;-87
2024/03/28 02:02:40;;;;;;;38.67;31.17;;;8.20;90.70;;;;;;5034374;28;20616;-86
2024/03/28 02:05:07;;;;;;;41.77;30.33;;;8.20;90.70;;;;;;5035312;28;20227;-86
2024/03/28 02:07:32;;;;;;;49.40;33.00;;;8.30;90.70;;;;;;5033691;28;20235;-86
2024/03/28 02:09:58;;;;;;;37.77;31.10;;;8.30;90.60;;;;;;5033771;28;20176;-86
2024/03/28 02:12:24;;;;;;;40.87;32.30;;;8.20;90.60;;;;;;5034626;28;20193;-86
2024/03/28 02:14:49;;;;;;;39.47;32.20;;;8.30;90.70;;;;;;5034962;28;20200;-86
2024/03/28 02:17:15;;;;;;;43.63;31.57;;;8.30;90.70;;;;;;5033647;28;20677;-86
2024/03/28 02:19:40;;;;;;;35.97;30.30;;;8.30;90.60;;;;;;5034588;28;20184;-86
2024/03/28 02:22:06;;;;;;;39.53;30.50;;;8.30;90.60;;;;;;5033440;28;20586;-86
2024/03/28 02:24:32;;;;;;;43.20;30.50;;;8.30;90.50;;;;;;5033218;28;20238;-86
2024/03/28 02:26:58;;;;;;;39.87;32.43;;;8.20;90.60;;;;;;5033554;28;20184;-86
2024/03/28 02:29:24;;;;;;;40.47;31.53;;;8.20;90.60;;;;;;5034505;28;20652;-85
2024/03/28 02:31:49;;;;;;;44.30;31.27;;;8.20;90.80;;;;;;5034511;28;20200;-86
2024/03/28 02:34:15;;;;;;;43.40;30.80;;;8.20;90.90;;;;;;5033075;28;20678;-85
2024/03/28 02:36:41;;;;;;;43.47;32.03;;;8.20;91.00;;;;;;5034471;28;20176;-86
2024/03/28 02:39:07;;;;;;;44.37;33.10;;;8.20;91.10;;;;;;5034318;28;20535;-85
2024/03/28 02:41:32;;;;;;;36.50;29.47;;;8.20;91.20;;;;;;5032865;28;20201;-85
2024/03/28 02:43:58;;;;;;;44.30;30.43;;;8.20;91.40;;;;;;5034296;28;20180;-86
2024/03/28 02:46:23;;;;;;;45.13;29.27;;;8.20;91.50;;;;;;5033091;28;20720;-87
2024/03/28 02:48:49;;;;;;;36.90;30.10;;;8.10;91.50;;;;;;5034216;28;20586;-87
2024/03/28 02:51:14;;;;;;;41.50;28.97;;;8.20;91.70;;;;;;5034079;28;20175;-87
2024/03/28 02:53:40;;;;;;;38.70;28.90;;;8.20;91.60;;;;;;5033081;28;20172;-86
2024/03/28 02:56:06;;;;;;;41.13;31.27;;;8.20;91.70;;;;;;5034125;28;20193;-86
2024/03/28 02:58:31;;;;;;;43.97;30.97;;;8.10;91.80;;;;;;5033981;28;20630;-86
2024/03/28 03:01:02;;;;;;;39.30;30.87;;;8.10;91.90;;;;;;5034479;28;20636;-87
2024/03/28 03:03:27;;;;;;;43.27;32.07;;;8.20;92.10;;;;;;5033770;28;20235;-86
2024/03/28 03:05:53;;;;;;;41.87;31.80;;;8.10;91.90;;;;;;5032665;28;20176;-86
2024/03/28 03:08:18;;;;;;;36.83;30.27;;;8.20;91.90;;;;;;5032598;28;20184;-86
2024/03/28 03:10:44;;;;;;;44.33;33.47;;;8.20;91.90;;;;;;5032462;28;20195;-86
2024/03/28 03:13:09;;;;;;;42.83;30.20;;;8.20;92.00;;;;;;5033762;28;20197;-87
2024/03/28 03:15:35;;;;;;;40.30;30.83;;;8.20;92.00;;;;;;5032514;28;20204;-87
2024/03/28 03:18:00;;;;;;;39.73;29.90;;;8.20;92.00;;;;;;5033967;28;20647;-87
2024/03/28 03:20:26;;;;;;;36.77;29.77;;;8.20;92.00;;;;;;5032617;28;20180;-86
2024/03/28 03:23:03;;;;;;;38.57;30.37;;;8.20;92.10;;;;;;5032281;28;20196;-86
2024/03/28 03:25:28;;;;;;;41.60;31.20;;;8.20;92.10;;;;;;5034083;28;20184;-87
2024/03/28 03:36:07;;;;;;;38.27;29.77;;;8.20;92.20;;;;;;5033505;28;20695;-86
2024/03/28 03:38:33;;;;;;;38.13;28.63;;;8.20;92.30;;;;;;5033585;28;20173;-89
2024/03/28 03:41:02;;;;;;;38.10;29.63;;;8.20;92.30;;;;;;5033553;28;20169;-86
2024/03/28 03:43:27;;;;;;;43.43;28.70;;;8.20;92.30;;;;;;5033850;28;20266;-86
2024/03/28 03:45:53;;;;;;;41.70;30.83;;;8.20;92.30;;;;;;5037432;28;20672;-87
2024/03/28 03:48:18;;;;;;;39.00;27.90;;;8.20;92.30;;;;;;5037511;28;20177;-86
2024/03/28 03:50:44;;;;;;;39.17;26.37;;;8.20;92.40;;;;;;5037611;28;20172;-86
2024/03/28 03:53:10;;;;;;;39.50;27.67;;;8.20;92.60;;;;;;5036048;28;20197;-86
2024/03/28 03:55:36;;;;;;;39.37;26.17;;;8.20;92.60;;;;;;5037099;28;20200;-86
2024/03/28 03:58:01;;;;;;;38.43;26.40;;;8.30;92.70;;;;;;5037188;28;20736;-88
2024/03/28 04:00:27;;;;;;;41.00;26.53;;;8.20;92.80;;;;;;5037292;28;20172;-86
2024/03/28 04:02:52;;;;;;;36.07;24.37;;;8.30;92.90;;;;;;5036073;28;20208;-87
2024/03/28 04:05:18;;;;;;;31.17;23.43;;;8.20;93.00;;;;;;5037182;28;20208;-88
2024/03/28 04:07:43;;;;;;;35.67;21.13;;;8.30;93.10;;;;;;5037445;28;20207;-86
2024/03/28 04:10:09;;;;;;;27.43;21.33;;;8.20;93.20;;;;;;5035951;28;20180;-86
2024/03/28 04:12:35;;;;;;;27.13;20.90;;;8.20;93.20;;;;;;5036944;28;20752;-86
2024/03/28 04:15:00;;;;;;;31.20;20.03;;;8.20;93.20;;;;;;5037090;28;20319;-87
2024/03/28 04:17:26;;;;;;;31.30;19.47;;;8.20;93.20;;;;;;5037386;28;20542;-86
2024/03/28 04:19:52;;;;;;;34.03;18.93;;;8.20;93.20;;;;;;5035476;28;20556;-87
2024/03/28 04:22:17;;;;;;;32.47;18.67;;;8.20;93.30;;;;;;5035674;28;20197;-87
2024/03/28 04:24:43;;;;;;;27.47;17.77;;;8.20;93.40;;;;;;5037072;28;20664;-86
2024/03/28 04:27:08;;;;;;;25.27;19.07;;;8.20;93.40;;;;;;5036677;28;20199;-86
2024/03/28 04:29:34;;;;;;;30.47;18.67;;;8.20;93.50;;;;;;5035536;28;20230;-86
2024/03/28 04:32:00;;;;;;;23.13;15.17;;;8.20;93.50;;;;;;5036499;28;20192;-86
2024/03/28 04:34:27;;;;;;;30.00;18.37;;;8.10;93.60;;;;;;5036548;28;20179;-86
2024/03/28 04:36:53;;;;;;;28.53;19.30;;;8.10;93.60;;;;;;5036416;28;20173;-87
2024/03/28 04:39:18;;;;;;;30.03;20.17;;;8.20;93.70;;;;;;5035438;28;20257;-87
2024/03/28 04:41:44;;;;;;;27.03;19.17;;;8.20;93.80;;;;;;5035214;28;20192;-87
2024/03/28 04:44:10;;;;;;;26.13;18.00;;;8.10;93.80;;;;;;5036307;28;20169;-86
2024/03/28 04:46:36;;;;;;;27.93;16.53;;;8.10;93.90;;;;;;5034991;28;20242;-86
2024/03/28 04:49:03;;;;;;;26.13;16.47;;;8.10;94.00;;;;;;5035012;28;20648;-87
2024/03/28 04:51:28;;;;;;;24.77;17.37;;;8.10;94.00;;;;;;5034735;28;20234;-86
2024/03/28 04:53:54;;;;;;;24.60;16.07;;;8.10;94.00;;;;;;5035980;28;20255;-87
2024/03/28 04:56:19;;;;;;;19.57;14.57;;;8.00;94.10;;;;;;5034796;28;20208;-86
2024/03/28 04:58:45;;;;;;;25.33;16.53;;;8.00;94.10;;;;;;5035891;28;20246;-86
2024/03/28 05:01:10;;;;;;;21.80;15.43;;;8.00;94.10;;;;;;5034768;28;20185;-87
2024/03/28 05:03:36;;;;;;;19.67;15.03;;;8.00;94.10;;;;;;5036440;28;20200;-86
2024/03/28 05:06:02;;;;;;;18.93;13.43;;;8.00;94.10;;;;;;5035977;28;20212;-87
2024/03/28 05:08:27;;;;;;;18.97;14.17;;;7.90;94.20;;;;;;5035742;28;20198;-86
2024/03/28 05:10:53;;;;;;;24.30;13.77;;;7.90;94.20;;;;;;5034646;28;20659;-86
2024/03/28 05:13:19;;;;;;;20.80;14.20;;;7.90;94.20;;;;;;5036024;28;20291;-86
2024/03/28 05:15:45;;;;;;;20.60;12.93;;;7.90;94.20;;;;;;5035585;28;20197;-86
2024/03/28 05:18:10;;;;;;;13.00;11.47;;;7.90;94.20;;;;;;5034665;28;20176;-86
2024/03/28 05:20:36;;;;;;;15.93;12.53;;;7.80;94.30;;;;;;5034485;28;20173;-86
2024/03/28 05:23:02;;;;;;;13.83;11.40;;;7.90;94.30;;;;;;5035528;28;20218;-86
2024/03/28 05:25:28;;;;;;;14.33;11.53;;;7.90;94.30;;;;;;5035522;28;20652;-86
2024/03/28 05:27:53;;;;;;;14.60;11.00;;;7.80;94.30;;;;;;5036248;28;20179;-87
2024/03/28 05:30:19;;;;;;;11.87;9.83;;;7.80;94.40;;;;;;5035514;28;20177;-86
2024/03/28 05:32:44;;;;;;;12.73;10.53;;;7.80;94.40;;;;;;5035504;28;20196;-86
2024/03/28 05:35:10;;;;;;;13.87;12.57;;;7.70;94.40;;;;;;5034128;28;20208;-86
2024/03/28 05:37:35;;;;;;;10.40;9.30;;;7.80;94.50;;;;;;5035728;28;20180;-86
2024/03/28 05:40:01;;;;;;;10.90;9.70;;;7.60;94.40;;;;;;5035442;28;20715;-87
2024/03/28 05:42:26;;;;;;;12.70;11.17;;;7.70;94.50;;;;;;5034136;28;20193;-87
2024/03/28 05:44:52;;;;;;;11.60;10.60;;;7.70;94.50;;;;;;5034100;28;20181;-86
2024/03/28 05:47:17;;;;;;;10.67;9.67;;;7.70;94.50;;;;;;5035281;28;20176;-87
2024/03/28 05:49:43;;;;;;;10.90;9.87;;;7.70;94.50;;;;;;5035436;28;20180;-86
2024/03/28 05:52:08;;;;;;;11.73;10.57;;;7.60;94.50;;;;;;5035476;28;20236;-87
2024/03/28 05:54:34;;;;;;;10.70;9.67;;;7.70;94.40;;;;;;5033857;28;20222;-87
2024/03/28 05:56:59;;;;;;;10.77;9.87;;;7.60;94.40;;;;;;5033758;28;20648;-87
2024/03/28 05:59:25;;;;;;;9.67;8.87;;;7.60;94.40;;;;;;5035391;28;20648;-86
2024/03/28 06:01:50;;;;;;;9.77;8.87;;;7.60;94.40;;;;;;5035266;28;20195;-87
2024/03/28 06:04:16;;;;;;;10.40;9.07;;;7.60;94.40;;;;;;5035303;28;20169;-88
2024/03/28 06:06:41;;;;;;;10.00;9.17;;;7.70;94.40;;;;;;5034585;28;20181;-87
2024/03/28 06:09:07;;;;;;;9.87;8.97;;;7.60;94.40;;;;;;5033792;28;20177;-87
2024/03/28 06:11:34;;;;;;;9.47;8.67;;;7.60;94.30;;;;;;5035239;28;20196;-87
2024/03/28 06:14:08;;;;;;;9.07;8.27;;;7.50;94.30;;;;;;5033754;28;20177;-87
2024/03/28 06:16:33;;;;;;;9.23;8.43;;;7.60;94.40;;;;;;5033399;28;20204;-86
2024/03/28 06:18:59;;;;;;;8.23;7.63;;;7.50;94.40;;;;;;5034805;28;20184;-87
2024/03/28 06:21:25;;;;;;;9.30;8.50;;;7.50;94.40;;;;;;5035022;28;20667;-86
2024/03/28 06:23:50;;;;;;;9.10;8.40;;;7.50;94.50;;;;;;5033632;28;20195;-87
2024/03/28 06:26:16;;;;;;;9.20;8.30;;;7.50;94.50;;;;;;5035036;28;20173;-87
2024/03/28 06:28:41;;;;;;;9.40;8.53;;;7.40;94.40;;;;;;5034629;28;20185;-86
2024/03/28 06:31:07;;;;;;;9.70;8.90;;;7.50;94.50;;;;;;5033262;28;20184;-87
2024/03/28 06:33:32;;;;;;;9.03;8.23;;;7.50;94.50;;;;;;5033306;28;20204;-87
2024/03/28 06:35:58;;;;;;;9.57;8.73;;;7.50;94.50;;;;;;5033154;28;20554;-86
2024/03/28 06:38:23;;;;;;;9.93;9.00;;;7.50;94.50;;;;;;5034822;28;20262;-87
2024/03/28 06:40:58;;;;;;;10.30;9.50;;;7.50;94.50;;;;;;5034473;28;20219;-86
2024/03/28 06:43:24;;;;;;;9.00;8.17;;;7.50;94.50;;;;;;5034403;28;20291;-87
2024/03/28 06:45:49;;;;;;;8.63;7.93;;;7.40;94.40;;;;;;5034285;28;20708;-87
2024/03/28 06:48:15;;;;;;;9.07;8.23;;;7.40;94.40;;;;;;5033194;28;20263;-88
2024/03/28 06:50:40;;;;;;;10.47;9.57;;;7.30;94.40;;;;;;5034488;28;20176;-87
2024/03/28 06:53:06;;;;;;;8.27;7.47;;;7.40;94.40;;;;;;5033040;28;20207;-88
2024/03/28 06:55:31;;;;;;;8.10;7.30;;;7.40;94.40;;;;;;5034847;28;20204;-87
2024/03/28 06:57:57;;;;;;;8.70;7.40;;;7.40;94.50;;;;;;5034013;28;20177;-87
2024/03/28 07:00:22;;;;;;;7.67;6.97;;;7.40;94.40;;;;;;5034310;28;20252;-88
2024/03/28 07:02:48;;;;;;;8.70;7.30;;;7.30;94.40;;;;;;5032669;28;20322;-87
2024/03/28 07:05:13;;;;;;;8.90;8.10;;;7.40;94.40;;;;;;5034378;28;20181;-87
2024/03/28 07:07:39;;;;;;;9.23;8.33;;;7.40;94.50;;;;;;5033140;28;20216;-87
2024/03/28 07:10:06;;;;;;;8.87;8.07;;;7.40;94.50;;;;;;5033150;28;20258;-88
2024/03/28 07:12:35;;;;;;;9.67;8.77;;;7.30;94.40;;;;;;5033709;28;20319;-88
2024/03/28 07:15:00;;;;;;;9.07;8.17;;;7.40;94.50;;;;;;5033999;28;20667;-87
2024/03/28 07:17:26;;;;;;;9.17;8.27;;;7.40;94.50;;;;;;5034147;28;20181;-89
2024/03/28 07:19:51;;;;;;;9.00;8.13;;;7.40;94.50;;;;;;5033215;28;20180;-88
2024/03/28 07:22:18;;;;;;;8.40;7.57;;;7.40;94.60;;;;;;5034165;28;20185;-88
2024/03/28 07:24:43;;;;;;;10.30;9.10;;;7.40;94.60;;;;;;5033504;28;20184;-89
2024/03/28 07:27:09;;;;;;;11.50;7.73;;;7.40;94.60;;;;;;5033724;28;20227;-87
2024/03/28 07:29:34;;;;;;;9.40;8.57;;;7.40;94.60;;;;;;5034157;28;20176;-88
2024/03/28 07:32:00;;;;;;;8.87;8.07;;;7.30;94.60;;;;;;5033894;28;20204;-87
2024/03/28 07:34:25;;;;;;;10.47;9.37;;;7.40;94.70;;;;;;5032133;28;20172;-87
2024/03/28 07:36:51;;;;;;;9.07;8.17;;;7.50;94.70;;;;;;5032251;28;20215;-87
2024/03/28 07:39:18;;;;;;;9.70;8.70;;;7.40;94.60;;;;;;5033247;28;20177;-89
2024/03/28 07:41:43;;;;;;;10.60;8.57;;;7.40;94.60;;;;;;5033445;28;20189;-87
2024/03/28 07:44:09;;;;;;;8.07;7.27;;;7.40;94.60;;;;;;5032366;28;20783;-87
2024/03/28 07:46:34;;;;;;;11.53;7.60;;;7.40;94.70;;;;;;5033456;28;20294;-88
2024/03/28 07:49:01;;;;;;;8.47;7.67;;;7.40;94.70;;;;;;5031962;28;20267;-88
2024/03/28 07:51:27;;;;;;;8.83;6.83;;;7.40;94.80;;;;;;5033788;28;20266;-87
2024/03/28 07:53:53;;;;;;;9.63;6.70;;;7.40;94.80;;;;;;5032292;28;20222;-87
2024/03/28 07:56:19;;;;;;;7.93;6.87;;;7.40;94.80;;;;;;5033423;28;20201;-88
2024/03/28 07:58:45;;;;;;;7.07;6.37;;;7.40;94.80;;;;;;5032199;28;20199;-87
2024/03/28 08:01:11;;;;;;;6.50;5.83;;;7.30;94.80;;;;;;5033342;28;20549;-90
2024/03/28 08:03:37;;;;;;;7.00;6.30;;;7.40;94.80;;;;;;5031927;28;20246;-88
2024/03/28 08:06:07;;;;;;;6.70;6.20;;;7.30;94.80;;;;;;5033250;28;20196;-88
2024/03/28 08:08:33;;;;;;;8.83;8.13;;;7.30;94.80;;;;;;5031792;28;20177;-87
2024/03/28 08:10:59;;;;;;;8.50;7.90;;;7.30;94.60;;;;;;5032202;28;20660;-88
2024/03/28 08:13:28;;;;;;;7.73;7.13;;;7.40;94.70;;;;;;5031620;28;20291;-87
2024/03/28 08:15:54;;;;;;;9.10;8.20;;;7.30;94.70;;;;;;5033261;28;20569;-88
2024/03/28 08:18:20;;;;;;;7.97;7.17;;;7.30;94.70;;;;;;5031924;28;20173;-88
2024/03/28 08:20:46;;;;;;;8.67;7.93;;;7.30;94.80;;;;;;5033188;28;20550;-88
2024/03/28 08:23:12;;;;;;;8.17;7.33;;;7.30;94.60;;;;;;5033356;28;20189;-88
2024/03/28 08:25:38;;;;;;;8.57;7.77;;;7.40;94.70;;;;;;5033066;28;20173;-88
2024/03/28 08:28:04;;;;;;;8.80;8.00;;;7.30;94.70;;;;;;5031931;28;20183;-88
2024/03/28 08:30:32;;;;;;;7.60;7.03;;;7.30;94.60;;;;;;5033906;28;20181;-87
2024/03/28 08:32:58;;;;;;;7.03;6.53;;;7.20;94.60;;;;;;5035611;28;20196;-87
2024/03/28 08:35:24;;;;;;;7.93;6.97;;;7.20;94.70;;;;;;5035430;28;20792;-90
2024/03/28 08:37:49;;;;;;;7.30;6.70;;;7.20;94.70;;;;;;5035667;28;20177;-87
2024/03/28 08:40:15;;;;;;;6.87;6.20;;;7.10;94.50;;;;;;5035824;28;20271;-87
2024/03/28 08:42:43;;;;;;;5.93;5.43;;;7.10;94.60;;;;;;5035640;28;20279;-87
2024/03/28 08:45:11;;;;;;;6.30;5.70;;;7.10;94.60;;;;;;5036242;28;20188;-87
2024/03/28 08:47:37;;;;;;;6.63;6.23;;;7.10;94.50;;;;;;5036794;28;20181;-89
2024/03/28 08:50:04;;;;;;;6.50;6.00;;;7.10;94.60;;;;;;5035732;28;20547;-91
2024/03/28 08:52:30;;;;;;;6.83;6.23;;;7.20;94.60;;;;;;5037468;28;20231;-87
2024/03/28 08:54:56;;;;;;;6.27;5.87;;;7.20;94.60;;;;;;5035021;28;20209;-87
2024/03/28 08:57:23;;;;;;;6.50;6.00;;;7.20;94.60;;;;;;5036483;28;20181;-88
2024/03/28 08:59:50;;;;;;;7.27;6.77;;;7.20;94.60;;;;;;5037512;28;20184;-88
2024/03/28 09:02:18;;;;;;;6.67;6.17;;;7.30;94.60;;;;;;5034876;28;20220;-87
2024/03/28 09:04:44;;;;;;;6.83;6.33;;;7.30;94.60;;;;;;5036280;28;20173;-87
2024/03/28 09:07:10;;;;;;;7.33;6.67;;;7.20;94.60;;;;;;5036810;28;20256;-88
2024/03/28 09:09:37;;;;;;;7.57;7.07;;;7.20;94.50;;;;;;5036373;28;20223;-87
2024/03/28 09:12:03;;;;;;;6.70;6.20;;;7.20;94.50;;;;;;5036603;28;20188;-88
2024/03/28 09:14:29;;;;;;;7.23;6.63;;;7.20;94.40;;;;;;5036175;28;20556;-86
2024/03/28 09:16:54;;;;;;;7.13;6.63;;;7.30;94.50;;;;;;5035946;28;20172;-88
2024/03/28 09:19:21;;;;;;;7.00;6.30;;;7.30;94.40;;;;;;5034723;28;20165;-88
2024/03/28 09:21:46;;;;;;;7.10;6.50;;;7.30;94.40;;;;;;5036064;28;20272;-86
2024/03/28 09:24:13;;;;;;;7.00;6.30;;;7.30;94.40;;;;;;5034450;28;20200;-87
2024/03/28 09:26:39;;;;;;;7.53;6.90;;;7.50;94.40;;;;;;5035938;28;20176;-87
2024/03/28 09:29:04;;;;;;;8.37;6.83;;;7.50;94.30;;;;;;5035757;28;20242;-86
2024/03/28 09:31:30;;;;;;;7.77;7.07;;;7.60;94.40;;;;;;5035903;28;20683;-86
2024/03/28 09:33:55;;;;;;;5.80;5.33;;;7.60;94.20;;;;;;5034397;28;20188;-87
2024/03/28 09:36:21;;;;;;;6.00;5.47;;;7.60;94.30;;;;;;5034523;28;20597;-88
2024/03/28 09:38:50;;;;;;;7.13;6.27;;;7.50;94.00;;;;;;5035593;28;20200;-87
2024/03/28 09:41:30;;;;;;;6.53;5.97;;;7.70;94.20;;;;;;5033461;28;20264;-87
2024/03/28 09:44:10;;;;;;;6.47;5.87;;;7.80;94.20;;;;;;5034196;28;20180;-87
2024/03/28 09:46:41;;;;;;;6.30;5.67;;;7.90;94.20;;;;;;5035667;28;20157;-88
2024/03/28 09:49:08;;;;;;;5.17;4.77;;;8.10;94.20;;;;;;5034367;28;20195;-87
2024/03/28 09:51:38;;;;;;;5.07;4.67;;;7.80;93.40;;;;;;5035124;28;20734;-87
2024/03/28 09:54:05;;;;;;;4.80;4.10;;;8.00;93.30;;;;;;5035221;28;20274;-86
2024/03/28 09:56:31;;;;;;;4.43;4.13;;;8.20;93.00;;;;;;5035293;28;20200;-87
2024/03/28 09:58:57;;;;;;;5.13;4.63;;;8.40;93.00;;;;;;5035050;28;20189;-90
2024/03/28 10:01:23;;;;;;;5.33;4.93;;;8.40;92.50;;;;;;5035231;28;20208;-87
2024/03/28 10:04:16;;;;;;;5.97;5.57;;;8.50;92.40;;;;;;5034510;28;20212;-87
2024/03/28 10:06:49;;;;;;;7.27;6.57;;;8.40;92.20;;;;;;5027448;28;20199;-87
2024/03/28 10:09:15;;;;;;;8.20;7.40;;;8.50;92.10;;;;;;5033863;28;20557;-86
2024/03/28 10:11:41;;;;;;;9.00;8.20;;;8.30;91.40;;;;;;5035137;28;20235;-86
2024/03/28 10:14:14;;;;;;;8.60;7.90;;;8.60;91.70;;;;;;5035119;28;20196;-88
2024/03/28 10:16:41;;;;;;;8.47;7.27;;;8.50;91.30;;;;;;5033694;28;20200;-87
2024/03/28 10:19:08;;;;;;;8.33;7.53;;;8.50;91.00;;;;;;5035099;28;20261;-87
2024/03/28 10:21:33;;;;;;;8.30;7.70;;;8.70;91.00;;;;;;5033645;28;20197;-88
2024/03/28 10:24:01;;;;;;;9.00;8.10;;;8.80;90.40;;;;;;5033309;28;20176;-86
2024/03/28 10:26:29;;;;;;;9.77;8.77;;;9.00;90.50;;;;;;5035088;28;20212;-87
2024/03/28 10:28:54;;;;;;;8.80;7.90;;;9.00;89.80;;;;;;5034759;28;20165;-87
2024/03/28 10:31:24;;;;;;;8.90;8.00;;;9.00;89.80;;;;;;5033359;28;20225;-88
2024/03/28 10:33:52;;;;;;;8.57;7.97;;;9.30;90.00;;;;;;5033657;28;20180;-87
2024/03/28 10:36:24;;;;;;;8.73;8.13;;;9.40;89.00;;;;;;5034658;28;20688;-88
2024/03/28 10:39:00;;;;;;;9.53;8.73;;;9.50;88.40;;;;;;5033536;28;20267;-89
2024/03/28 10:41:28;;;;;;;9.80;9.20;;;9.80;87.80;;;;;;5032917;28;20172;-88
2024/03/28 10:43:54;;;;;;;9.73;9.03;;;9.90;87.60;;;;;;5034507;28;20592;-87
2024/03/28 10:46:20;;;;;;;9.90;9.30;;;10.10;87.50;;;;;;5035097;28;20284;-87
2024/03/28 10:48:46;;;;;;;10.00;9.37;;;9.90;86.10;;;;;;5034746;28;20661;-87
2024/03/28 10:51:26;;;;;;;9.70;9.00;;;9.80;86.40;;;;;;5034515;28;20259;-88
2024/03/28 10:54:05;;;;;;;9.53;8.83;;;10.10;86.50;;;;;;5034727;28;20203;-88
2024/03/28 10:56:31;;;;;;;8.20;7.70;;;9.80;85.90;;;;;;5033032;28;20208;-87
2024/03/28 10:59:00;;;;;;;9.17;8.47;;;10.10;86.70;;;;;;5032850;28;20192;-87
2024/03/28 11:01:29;;;;;;;9.77;9.17;;;10.40;87.10;;;;;;5034111;28;20175;-87
2024/03/28 11:03:56;;;;;;;9.53;8.93;;;10.30;85.30;;;;;;5033265;28;20211;-87
2024/03/28 11:06:25;;;;;;;9.20;8.60;;;10.50;86.20;;;;;;5034156;28;20187;-87
2024/03/28 11:08:53;;;;;;;9.60;8.90;;;10.70;84.20;;;;;;5032958;28;20185;-87
2024/03/28 11:11:19;;;;;;;9.63;8.90;;;10.90;84.50;;;;;;5033351;28;20245;-88
2024/03/28 11:13:45;;;;;;;10.07;9.47;;;11.20;85.20;;;;;;5033172;28;20184;-87
2024/03/28 11:16:12;;;;;;;9.93;9.33;;;11.10;83.60;;;;;;5034478;28;20207;-87
2024/03/28 11:18:39;;;;;;;10.40;9.80;;;11.00;82.70;;;;;;5033145;28;20177;-88
2024/03/28 11:21:05;;;;;;;10.67;10.07;;;10.80;82.10;;;;;;5034188;28;20172;-87
2024/03/28 11:23:34;;;;;;;10.93;10.00;;;10.30;82.70;;;;;;5033834;28;20215;-87
2024/03/28 11:26:10;;;;;;;10.23;9.63;;;10.20;83.40;;;;;;5035382;28;20172;-87
2024/03/28 11:28:44;;;;;;;10.87;10.27;;;10.60;84.10;;;;;;5032441;28;20246;-87
2024/03/28 11:31:13;;;;;;;10.83;10.13;;;10.40;83.10;;;;;;5033441;28;20258;-88
2024/03/28 11:33:39;;;;;;;12.00;11.20;;;10.50;83.00;;;;;;5033357;28;20168;-88
2024/03/28 11:36:07;;;;;;;10.30;9.70;;;10.20;82.40;;;;;;5033370;28;20219;-89
2024/03/28 11:38:37;;;;;;;11.50;10.80;;;10.40;84.10;;;;;;5032230;28;20223;-89
2024/03/28 11:41:05;;;;;;;11.17;10.30;;;10.70;83.40;;;;;;5032579;28;20621;-88
2024/03/28 11:43:32;;;;;;;12.70;11.80;;;11.30;82.50;;;;;;5033728;28;20287;-89
2024/03/28 11:46:00;;;;;;;13.20;12.40;;;11.40;81.60;;;;;;5033733;28;20165;-89
2024/03/28 11:48:27;;;;;;;13.60;12.43;;;11.60;80.80;;;;;;5032595;28;20188;-88
2024/03/28 11:50:56;;;;;;;12.73;11.83;;;11.70;80.40;;;;;;5032388;28;20227;-87
2024/03/28 11:53:21;;;;;;;14.67;13.40;;;11.90;78.40;;;;;;5032557;28;20288;-87
2024/03/28 11:55:48;;;;;;;13.37;12.47;;;11.90;77.10;;;;;;5033736;28;20642;-87
2024/03/28 11:58:18;;;;;;;14.43;13.53;;;12.20;78.50;;;;;;5033667;28;20230;-87
2024/03/28 12:00:46;;;;;;;14.77;13.87;;;12.20;77.90;;;;;;5033661;28;20164;-87
2024/03/28 12:03:12;;;;;;;15.90;14.80;;;12.40;77.70;;;;;;5032336;28;20200;-87
2024/03/28 12:05:38;;;;;;;23.20;21.63;;;12.00;77.30;;;;;;5035731;28;20640;-88
2024/03/28 12:08:04;;;;;;;23.90;22.30;;;11.90;76.90;;;;;;5037343;28;20177;-87
2024/03/28 12:10:30;;;;;;;23.47;21.90;;;12.00;78.10;;;;;;5035978;28;20172;-87
2024/03/28 12:12:56;;;;;;;24.67;22.87;;;11.60;77.10;;;;;;5036949;28;20326;-86
2024/03/28 12:15:24;;;;;;;21.63;20.23;;;11.50;77.60;;;;;;5037279;28;20217;-87
2024/03/28 12:17:50;;;;;;;24.20;22.60;;;11.50;78.10;;;;;;5037303;28;20656;-86
2024/03/28 12:20:21;;;;;;;21.07;19.67;;;11.30;77.10;;;;;;5050413;23;20229;-89
2024/03/28 12:22:53;;;;;;;23.63;22.00;;;11.30;79.20;;;;;;5035374;28;20171;-89
2024/03/28 12:25:18;;;;;;;24.07;22.20;;;11.40;77.80;;;;;;5052060;28;20172;-89
2024/03/28 12:27:58;;;;;;;22.87;21.23;;;11.30;78.40;;;;;;5052066;28;20172;-89
2024/03/28 12:30:25;;;;;;;25.50;23.60;;;11.10;78.30;;;;;;5051965;28;20290;-89
2024/03/28 12:33:04;;;;;;;23.07;21.50;;;11.10;77.50;;;;;;5051912;28;20227;-89
2024/03/28 12:35:31;;;;;;;22.23;20.63;;;11.40;79.10;;;;;;5036315;28;20208;-90
2024/03/28 12:37:57;;;;;;;21.07;19.67;;;11.80;79.30;;;;;;5051881;28;20251;-90
2024/03/28 12:40:24;;;;;;;19.43;18.13;;;11.60;78.50;;;;;;5036259;28;20192;-89
2024/03/28 12:42:51;;;;;;;19.20;17.90;;;11.50;78.70;;;;;;5051701;28;20734;-90
2024/03/28 12:45:18;;;;;;;13.30;12.40;;;11.50;78.80;;;;;;5051778;28;20569;-90
2024/03/28 12:47:45;;;;;;;13.93;12.83;;;11.40;79.00;;;;;;5051686;28;20284;-89